createdAt,value
2022-10-05T00:00:55.949Z,102186.72
2022-10-05T00:03:27.613Z,102212.53
2022-10-05T00:05:54.781Z,102221.06
2022-10-05T00:08:31.872Z,102220.84
2022-10-05T00:10:59.680Z,102225.66
2022-10-05T00:13:30.076Z,102231.56
2022-10-05T00:16:15.259Z,102223.69
2022-10-05T00:18:46.565Z,102208.63
2022-10-05T00:21:26.368Z,102224.63
2022-10-05T00:23:57.700Z,102227.38
2022-10-05T00:26:33.362Z,102235.03
2022-10-05T00:29:02.770Z,102230.47
2022-10-05T00:31:32.950Z,102236.16
2022-10-05T00:34:00.419Z,102222.25
2022-10-05T00:36:27.700Z,102208.91
2022-10-05T00:38:55.560Z,102214.50
2022-10-05T00:41:40.848Z,102210.25
2022-10-05T00:44:26.334Z,102208.97
2022-10-05T00:46:59.449Z,102205.56
2022-10-05T00:49:38.590Z,102210.38
2022-10-05T00:52:22.269Z,102214.91
2022-10-05T00:55:03.414Z,102221.88
2022-10-05T00:57:57.293Z,102222.81
2022-10-05T01:00:27.361Z,102216.75
2022-10-05T01:03:08.885Z,102223.28
2022-10-05T01:06:15.018Z,102235.81
2022-10-05T01:08:54.207Z,102232.47
2022-10-05T01:11:30.802Z,102242.97
2022-10-05T01:14:05.884Z,102243.78
2022-10-05T01:16:50.621Z,102248.31
2022-10-05T01:19:51.259Z,102251.19
2022-10-05T01:22:34.018Z,102249.94
2022-10-05T01:25:27.079Z,102253.78
2022-10-05T01:27:59.576Z,102263.53
2022-10-05T01:30:28.312Z,102252.13
2022-10-05T01:33:01.614Z,102258.16
2022-10-05T01:35:47.053Z,102255.66
2022-10-05T01:38:42.916Z,102261.47
2022-10-05T01:41:15.986Z,102270.38
2022-10-05T01:43:49.443Z,102273.69
2022-10-05T01:46:16.889Z,102267.31
2022-10-05T01:48:56.007Z,102272.72
2022-10-05T01:51:26.078Z,102265.69
2022-10-05T01:54:16.653Z,102269.25
2022-10-05T01:56:55.312Z,102274.28
2022-10-05T01:59:59.691Z,102275.94
2022-10-05T02:02:32.075Z,102280.72
2022-10-05T02:05:08.347Z,102281.00
2022-10-05T02:08:16.933Z,102286.34
2022-10-05T02:10:53.673Z,102302.78
2022-10-05T02:13:47.593Z,102288.84
2022-10-05T02:16:17.828Z,102315.91
2022-10-05T02:19:03.684Z,102318.41
2022-10-05T02:21:34.295Z,102303.53
2022-10-05T02:24:08.347Z,102293.50
2022-10-05T02:26:38.068Z,102297.41
2022-10-05T02:29:11.625Z,102305.25
2022-10-05T02:31:52.877Z,102311.19
2022-10-05T02:34:27.093Z,102310.94
2022-10-05T02:37:22.378Z,102315.38
2022-10-05T02:40:16.484Z,102305.75
2022-10-05T02:43:18.523Z,102320.72
2022-10-05T02:45:49.112Z,102324.75
2022-10-05T02:48:58.269Z,102330.53
2022-10-05T02:51:40.935Z,102335.78
2022-10-05T02:54:53.313Z,102335.31
2022-10-05T02:57:34.475Z,102336.59
2022-10-05T03:00:14.455Z,102348.41
2022-10-05T03:02:56.077Z,102339.97
2022-10-05T03:05:41.994Z,102342.09
2022-10-05T03:08:38.901Z,102326.63
2022-10-05T03:11:23.506Z,102345.03
2022-10-05T03:14:14.390Z,102351.91
2022-10-05T03:16:53.952Z,102335.06
2022-10-05T03:19:58.870Z,102354.47
2022-10-05T03:22:53.600Z,102349.13
2022-10-05T03:25:41.191Z,102354.91
2022-10-05T03:28:17.643Z,102358.56
2022-10-05T03:31:13.653Z,102352.97
2022-10-05T03:33:48.166Z,102355.63
2022-10-05T03:36:30.465Z,102350.38
2022-10-05T03:39:40.998Z,102354.56
2022-10-05T03:42:29.804Z,102361.16
2022-10-05T03:45:27.494Z,102353.13
2022-10-05T03:48:08.728Z,102367.00
2022-10-05T03:51:01.104Z,102359.88
2022-10-05T03:53:54.755Z,102365.50
2022-10-05T03:56:47.618Z,102367.19
2022-10-05T03:59:17.567Z,102369.31
2022-10-05T04:01:52.098Z,102374.66
2022-10-05T04:04:26.593Z,102376.63
2022-10-05T04:06:55.708Z,102373.41
2022-10-05T04:09:30.603Z,102377.16
2022-10-05T04:12:30.499Z,102374.00
2022-10-05T04:15:03.865Z,102382.84
2022-10-05T04:17:42.466Z,102380.41
2022-10-05T04:20:22.685Z,102386.91
2022-10-05T04:23:13.223Z,102389.84
2022-10-05T04:25:51.959Z,102383.00
2022-10-05T04:28:32.315Z,102388.78
2022-10-05T04:31:05.609Z,102398.06
2022-10-05T04:33:33.567Z,102398.34
2022-10-05T04:36:04.403Z,102398.19
2022-10-05T04:38:50.260Z,102397.41
2022-10-05T04:41:42.379Z,102399.44
2022-10-05T04:44:34.998Z,102375.44
2022-10-05T04:47:39.404Z,102397.09
2022-10-05T04:50:44.357Z,102414.13
2022-10-05T04:53:17.795Z,102407.63
2022-10-05T04:55:55.346Z,102406.00
2022-10-05T04:58:42.589Z,102401.13
2022-10-05T05:01:42.713Z,102419.97
2022-10-05T05:04:48.278Z,102408.22
2022-10-05T05:07:43.619Z,102431.22
2022-10-05T05:10:32.944Z,102420.09
2022-10-05T05:13:15.250Z,102419.28
2022-10-05T05:16:01.506Z,102430.91
2022-10-05T05:18:47.605Z,102443.03
2022-10-05T05:21:20.967Z,102433.22
2022-10-05T05:23:57.852Z,102447.47
2022-10-05T05:26:51.480Z,102449.44
2022-10-05T05:29:23.726Z,102463.22
2022-10-05T05:32:06.092Z,102465.63
2022-10-05T05:35:05.313Z,102471.59
2022-10-05T05:37:39.701Z,102482.41
2022-10-05T05:40:16.004Z,102484.31
2022-10-05T05:42:57.851Z,102496.88
2022-10-05T05:45:42.512Z,102491.38
2022-10-05T05:48:40.783Z,102495.66
2022-10-05T05:51:14.311Z,102506.00
2022-10-05T05:53:55.217Z,102508.97
2022-10-05T05:56:32.099Z,102506.72
2022-10-05T05:59:33.357Z,102496.84
2022-10-05T06:02:09.454Z,102512.78
2022-10-05T06:04:45.153Z,102505.56
2022-10-05T06:07:18.176Z,102512.78
2022-10-05T06:09:54.665Z,102521.06
2022-10-05T06:12:41.682Z,102500.47
2022-10-05T06:15:30.999Z,102531.75
2022-10-05T06:18:02.550Z,102529.63
2022-10-05T06:20:42.115Z,102535.06
2022-10-05T06:23:34.212Z,102534.44
2022-10-05T06:26:10.460Z,102531.75
2022-10-05T06:28:39.053Z,102529.88
2022-10-05T06:31:58.861Z,102527.16
2022-10-05T06:34:42.039Z,102536.50
2022-10-05T06:37:23.161Z,102499.44
2022-10-05T06:40:16.578Z,102544.44
2022-10-05T06:42:49.991Z,102541.84
2022-10-05T06:46:03.081Z,102547.78
2022-10-05T06:49:41.156Z,102555.22
2022-10-05T06:52:36.307Z,102558.97
2022-10-05T06:55:30.426Z,102564.91
2022-10-05T06:58:02.778Z,102559.13
2022-10-05T07:00:42.939Z,102574.16
2022-10-05T07:03:29.196Z,102565.56
2022-10-05T07:06:16.886Z,102567.44
2022-10-05T07:09:14.837Z,102544.31
2022-10-05T07:12:08.270Z,102566.81
2022-10-05T07:14:46.565Z,102565.47
2022-10-05T07:17:26.773Z,102571.50
2022-10-05T07:20:23.385Z,102573.00
2022-10-05T07:23:11.061Z,102572.69
2022-10-05T07:25:44.342Z,102568.44
2022-10-05T07:28:19.766Z,102564.25
2022-10-05T07:31:00.566Z,102561.94
2022-10-05T07:33:43.295Z,102538.25
2022-10-05T07:36:38.505Z,102567.34
2022-10-05T07:39:13.332Z,102557.88
2022-10-05T07:41:52.676Z,102558.81
2022-10-05T07:44:45.758Z,102568.16
2022-10-05T07:47:27.880Z,102562.88
2022-10-05T07:50:04.247Z,102552.59
2022-10-05T07:52:40.032Z,102561.38
2022-10-05T07:55:18.477Z,102578.75
2022-10-05T07:57:57.800Z,102574.50
2022-10-05T08:00:49.092Z,102564.25
2022-10-05T08:03:38.827Z,102572.56
2022-10-05T08:06:11.080Z,102570.59
2022-10-05T08:08:38.389Z,102575.22
2022-10-05T08:11:15.165Z,102569.28
2022-10-05T08:14:02.445Z,102570.59
2022-10-05T08:16:35.343Z,102574.31
2022-10-05T08:19:10.276Z,102579.78
2022-10-05T08:21:41.809Z,102581.22
2022-10-05T08:24:46.288Z,102589.28
2022-10-05T08:27:19.901Z,102591.81
2022-10-05T08:29:57.183Z,102596.88
2022-10-05T08:32:27.835Z,102596.38
2022-10-05T08:35:27.353Z,102597.72
2022-10-05T08:37:55.332Z,102601.53
2022-10-05T08:40:25.525Z,102594.84
2022-10-05T08:43:39.823Z,102590.13
2022-10-05T08:46:25.648Z,102597.81
2022-10-05T08:49:24.774Z,102596.75
2022-10-05T08:52:22.728Z,102600.75
2022-10-05T08:55:08.628Z,102603.63
2022-10-05T08:58:13.365Z,102614.72
2022-10-05T09:00:55.263Z,102607.03
2022-10-05T09:04:00.362Z,102612.94
2022-10-05T09:06:45.903Z,102605.31
2022-10-05T09:09:31.214Z,102614.75
2022-10-05T09:12:10.329Z,102598.97
2022-10-05T09:14:56.433Z,102620.16
2022-10-05T09:18:10.624Z,102617.81
2022-10-05T09:20:54.298Z,102611.19
2022-10-05T09:23:38.927Z,102609.56
2022-10-05T09:26:43.615Z,102617.78
2022-10-05T09:29:29.557Z,102612.03
2022-10-05T09:32:19.807Z,102610.41
2022-10-05T09:35:34.619Z,102604.47
2022-10-05T09:38:20.344Z,102610.09
2022-10-05T09:40:56.249Z,102600.66
2022-10-05T09:44:00.939Z,102595.81
2022-10-05T09:46:40.156Z,102602.47
2022-10-05T09:49:20.315Z,102595.41
2022-10-05T09:52:32.155Z,102600.44
2022-10-05T09:55:31.172Z,102599.47
2022-10-05T09:58:14.982Z,102604.03
2022-10-05T10:01:09.463Z,102575.09
2022-10-05T10:04:10.607Z,102596.75
2022-10-05T10:07:16.477Z,102594.03
2022-10-05T10:10:04.897Z,102595.03
2022-10-05T10:12:31.901Z,102587.09
2022-10-05T10:15:11.286Z,102580.13
2022-10-05T10:17:53.488Z,102586.63
2022-10-05T10:21:06.265Z,102570.09
2022-10-05T10:24:03.929Z,102570.72
2022-10-05T10:27:03.610Z,102568.47
2022-10-05T10:29:51.151Z,102566.84
2022-10-05T10:32:21.336Z,102561.03
2022-10-05T10:34:57.688Z,102551.72
2022-10-05T10:37:58.661Z,102524.09
2022-10-05T10:40:53.251Z,102547.38
2022-10-05T10:43:45.925Z,102542.22
2022-10-05T10:46:50.518Z,102530.50
2022-10-05T10:49:55.287Z,102539.06
2022-10-05T10:52:28.473Z,102544.69
2022-10-05T10:55:17.143Z,102527.00
2022-10-05T10:57:53.451Z,102528.72
2022-10-05T11:00:49.902Z,102483.81
2022-10-05T11:03:55.665Z,102519.88
2022-10-05T11:06:50.196Z,102522.06
2022-10-05T11:09:35.494Z,102518.47
2022-10-05T11:12:41.434Z,102518.25
2022-10-05T11:15:26.169Z,102523.06
2022-10-05T11:18:11.682Z,102520.03
2022-10-05T11:20:57.301Z,102534.94
2022-10-05T11:23:54.912Z,102522.84
2022-10-05T11:26:37.247Z,102509.31
2022-10-05T11:29:34.579Z,102516.06
2022-10-05T11:32:40.321Z,102513.47
2022-10-05T11:35:35.026Z,102498.53
2022-10-05T11:38:08.274Z,102513.75
2022-10-05T11:41:03.431Z,102517.19
2022-10-05T11:43:53.430Z,102491.66
2022-10-05T11:46:26.516Z,102517.88
2022-10-05T11:49:25.959Z,102508.00
2022-10-05T11:52:14.117Z,102509.16
2022-10-05T11:55:16.155Z,102510.97
2022-10-05T11:57:49.304Z,102492.97
2022-10-05T12:00:24.945Z,102508.09
2022-10-05T12:03:21.589Z,102481.16
2022-10-05T12:05:58.032Z,102495.13
2022-10-05T12:08:37.340Z,102488.56
2022-10-05T12:11:16.511Z,102468.19
2022-10-05T12:14:15.924Z,102486.78
2022-10-05T12:16:58.975Z,102479.97
2022-10-05T12:19:30.062Z,102474.72
2022-10-05T12:22:23.555Z,102459.63
2022-10-05T12:25:18.149Z,102466.00
2022-10-05T12:27:49.766Z,102453.84
2022-10-05T12:30:28.834Z,102456.25
2022-10-05T12:33:17.493Z,102459.81
2022-10-05T12:36:05.712Z,102447.00
2022-10-05T12:38:50.580Z,102444.28
2022-10-05T12:41:36.776Z,102463.63
2022-10-05T12:44:35.389Z,102468.34
2022-10-05T12:47:44.733Z,102461.59
2022-10-05T12:50:33.671Z,102462.91
2022-10-05T12:53:22.772Z,102459.38
2022-10-05T12:56:15.106Z,102461.63
2022-10-05T12:59:29.537Z,102462.25
2022-10-05T13:02:25.468Z,102450.38
2022-10-05T13:05:15.596Z,102454.38
2022-10-05T13:08:07.334Z,102441.81
2022-10-05T13:10:37.516Z,102443.06
2022-10-05T13:13:23.788Z,102447.97
2022-10-05T13:16:03.236Z,102450.81
2022-10-05T13:18:40.048Z,102448.16
2022-10-05T13:21:12.849Z,102448.72
2022-10-05T13:23:45.973Z,102442.28
2022-10-05T13:26:21.929Z,102440.75
2022-10-05T13:29:24.496Z,102437.09
2022-10-05T13:32:00.411Z,102438.94
2022-10-05T13:34:40.400Z,102430.84
2022-10-05T13:37:26.240Z,102426.50
2022-10-05T13:40:33.187Z,102433.22
2022-10-05T13:43:06.783Z,102424.72
2022-10-05T13:45:45.398Z,102424.28
2022-10-05T13:48:41.375Z,102425.31
2022-10-05T13:51:37.259Z,102423.84
2022-10-05T13:54:42.036Z,102421.41
2022-10-05T13:57:33.105Z,102429.13
2022-10-05T14:00:27.087Z,102428.41
2022-10-05T14:02:56.455Z,102417.41
2022-10-05T14:05:29.374Z,102416.03
2022-10-05T14:07:56.559Z,102414.09
2022-10-05T14:10:40.541Z,102417.78
2022-10-05T14:13:45.243Z,102424.78
2022-10-05T14:16:12.419Z,102419.50
2022-10-05T14:18:53.011Z,102415.00
2022-10-05T14:21:31.029Z,102403.00
2022-10-05T14:24:46.160Z,102408.31
2022-10-05T14:27:21.307Z,102419.25
2022-10-05T14:30:08.673Z,102405.84
2022-10-05T14:32:59.586Z,102400.41
2022-10-05T14:35:31.033Z,102392.00
2022-10-05T14:38:01.147Z,102407.88
2022-10-05T14:40:30.089Z,102404.13
2022-10-05T14:43:00.105Z,102379.47
2022-10-05T14:45:31.188Z,102384.81
2022-10-05T14:48:01.837Z,102399.50
2022-10-05T14:50:31.454Z,102399.50
2022-10-05T14:53:21.313Z,102397.69
2022-10-05T14:56:46.154Z,102383.09
2022-10-05T14:59:38.336Z,102408.69
2022-10-05T15:02:52.203Z,102412.94
2022-10-05T15:05:45.988Z,102403.03
2022-10-05T15:08:28.133Z,102410.16
2022-10-05T15:11:21.490Z,102412.63
2022-10-05T15:13:49.304Z,102421.56
2022-10-05T15:16:38.398Z,102396.81
2022-10-05T15:19:22.844Z,102411.97
2022-10-05T15:21:55.319Z,102412.25
2022-10-05T15:24:49.010Z,102408.00
2022-10-05T15:27:45.214Z,102416.63
2022-10-05T15:30:18.227Z,102414.22
2022-10-05T15:33:05.361Z,102409.16
2022-10-05T15:35:49.115Z,102417.19
2022-10-05T15:38:22.194Z,102417.13
2022-10-05T15:41:17.231Z,102417.13
2022-10-05T15:44:22.677Z,102414.69
2022-10-05T15:46:58.863Z,102416.09
2022-10-05T15:49:37.047Z,102416.03
2022-10-05T15:52:31.913Z,102420.31
2022-10-05T15:55:17.709Z,102431.03
2022-10-05T15:58:08.524Z,102428.19
2022-10-05T16:00:49.015Z,102444.75
2022-10-05T16:03:27.652Z,102425.00
2022-10-05T16:06:18.872Z,102446.16
2022-10-05T16:09:09.284Z,102425.81
2022-10-05T16:11:54.834Z,102440.91
2022-10-05T16:14:35.761Z,102439.94
2022-10-05T16:17:18.301Z,102439.00
2022-10-05T16:20:14.707Z,102453.72
2022-10-05T16:23:05.453Z,102449.28
2022-10-05T16:26:10.247Z,102454.84
2022-10-05T16:28:53.226Z,102453.38
2022-10-05T16:31:49.236Z,102455.06
2022-10-05T16:34:50.255Z,102450.34
2022-10-05T16:37:38.567Z,102442.97
2022-10-05T16:40:30.136Z,102450.22
2022-10-05T16:42:57.209Z,102461.13
2022-10-05T16:45:48.218Z,102465.03
2022-10-05T16:48:28.943Z,102443.28
2022-10-05T16:51:18.111Z,102464.25
2022-10-05T16:53:56.117Z,102463.97
2022-10-05T16:56:28.792Z,102432.81
2022-10-05T16:59:29.835Z,102463.47
2022-10-05T17:02:24.560Z,102459.47
2022-10-05T17:04:58.180Z,102464.59
2022-10-05T17:07:35.181Z,102465.50
2022-10-05T17:10:29.713Z,102467.34
2022-10-05T17:12:56.721Z,102465.31
2022-10-05T17:15:54.120Z,102468.84
2022-10-05T17:18:29.420Z,102435.63
2022-10-05T17:21:12.850Z,102464.88
2022-10-05T17:24:39.237Z,102472.22
2022-10-05T17:27:32.937Z,102480.09
2022-10-05T17:30:28.492Z,102464.44
2022-10-05T17:33:14.750Z,102477.72
2022-10-05T17:36:03.329Z,102479.50
2022-10-05T17:38:30.405Z,102474.88
2022-10-05T17:41:00.509Z,102475.03
2022-10-05T17:43:30.884Z,102481.63
2022-10-05T17:46:03.920Z,102470.13
2022-10-05T17:48:42.864Z,102490.25
2022-10-05T17:51:36.061Z,102489.47
2022-10-05T17:54:39.277Z,102494.38
2022-10-05T17:57:06.619Z,102496.47
2022-10-05T17:59:54.052Z,102478.81
2022-10-05T18:02:40.772Z,102501.88
2022-10-05T18:05:15.390Z,102492.13
2022-10-05T18:07:48.801Z,102492.38
2022-10-05T18:10:30.023Z,102505.16
2022-10-05T18:13:00.325Z,102495.09
2022-10-05T18:15:27.341Z,102502.72
2022-10-05T18:18:32.375Z,102489.31
2022-10-05T18:21:20.514Z,102506.03
2022-10-05T18:24:00.395Z,102506.19
2022-10-05T18:27:12.799Z,102509.19
2022-10-05T18:30:03.959Z,102512.03
2022-10-05T18:32:53.617Z,102508.84
2022-10-05T18:35:56.243Z,102500.47
2022-10-05T18:38:53.225Z,102519.22
2022-10-05T18:41:32.560Z,102506.03
2022-10-05T18:44:14.397Z,102510.56
2022-10-05T18:46:56.256Z,102492.84
2022-10-05T18:49:51.936Z,102516.97
2022-10-05T18:53:06.145Z,102518.50
2022-10-05T18:55:43.918Z,102529.78
2022-10-05T18:58:22.455Z,102520.94
2022-10-05T19:01:11.266Z,102526.63
2022-10-05T19:03:41.616Z,102537.63
2022-10-05T19:06:12.957Z,102533.28
2022-10-05T19:09:18.794Z,102536.56
2022-10-05T19:11:49.873Z,102537.59
2022-10-05T19:14:37.332Z,102549.31
2022-10-05T19:17:25.836Z,102535.63
2022-10-05T19:20:35.736Z,102549.97
2022-10-05T19:23:18.858Z,102556.03
2022-10-05T19:25:55.029Z,102557.66
2022-10-05T19:28:41.378Z,102562.44
2022-10-05T19:31:11.448Z,102552.03
2022-10-05T19:33:44.685Z,102561.53
2022-10-05T19:36:17.898Z,102561.50
2022-10-05T19:39:08.191Z,102558.19
2022-10-05T19:42:13.964Z,102560.38
2022-10-05T19:45:02.777Z,102538.28
2022-10-05T19:47:54.925Z,102553.06
2022-10-05T19:50:33.816Z,102571.59
2022-10-05T19:53:24.395Z,102564.63
2022-10-05T19:55:51.711Z,102580.63
2022-10-05T19:58:21.000Z,102565.28
2022-10-05T20:01:02.485Z,102583.94
2022-10-05T20:03:32.450Z,102571.00
2022-10-05T20:06:02.067Z,102572.84
2022-10-05T20:08:39.440Z,102538.19
2022-10-05T20:11:13.952Z,102581.44
2022-10-05T20:13:44.570Z,102557.50
2022-10-05T20:16:36.389Z,102586.47
2022-10-05T20:19:24.137Z,102586.72
2022-10-05T20:21:56.879Z,102578.13
2022-10-05T20:24:26.577Z,102581.63
2022-10-05T20:27:02.840Z,102580.72
2022-10-05T20:29:35.623Z,102578.28
2022-10-05T20:32:12.391Z,102561.50
2022-10-05T20:34:41.785Z,102574.19
2022-10-05T20:37:14.361Z,102576.13
2022-10-05T20:39:42.033Z,102567.66
2022-10-05T20:42:10.806Z,102582.19
2022-10-05T20:44:38.432Z,102574.09
2022-10-05T20:47:09.562Z,102575.34
2022-10-05T20:49:39.218Z,102578.28
2022-10-05T20:52:09.877Z,102583.31
2022-10-05T20:54:38.511Z,102569.59
2022-10-05T20:57:07.323Z,102586.66
2022-10-05T20:59:35.672Z,102577.34
2022-10-05T21:02:03.926Z,102560.16
2022-10-05T21:04:40.374Z,102566.94
2022-10-05T21:07:08.913Z,102584.09
2022-10-05T21:09:38.551Z,102547.88
2022-10-05T21:12:05.835Z,102555.69
2022-10-05T21:14:36.358Z,102539.19
2022-10-05T21:17:05.259Z,102574.22
2022-10-05T21:19:38.321Z,102553.94
2022-10-05T21:22:10.016Z,102571.13
2022-10-05T21:24:38.714Z,102568.03
2022-10-05T21:27:06.567Z,102572.00
2022-10-05T21:29:35.629Z,102570.84
2022-10-05T21:32:03.207Z,102566.00
2022-10-05T21:34:30.398Z,102561.28
2022-10-05T21:36:57.531Z,102573.06
2022-10-05T21:39:25.370Z,102567.91
2022-10-05T21:41:52.706Z,102571.81
2022-10-05T21:44:20.162Z,102572.38
2022-10-05T21:46:50.447Z,102574.19
2022-10-05T21:49:20.042Z,102498.44
2022-10-05T21:51:48.171Z,102566.53
2022-10-05T21:54:20.215Z,102556.91
2022-10-05T21:56:52.917Z,102538.88
2022-10-05T21:59:24.278Z,102555.22
2022-10-05T22:01:51.883Z,102545.66
2022-10-05T22:04:19.078Z,102560.84
2022-10-05T22:06:46.148Z,102566.66
2022-10-05T22:09:13.408Z,102574.66
2022-10-05T22:11:40.652Z,102565.28
2022-10-05T22:14:07.867Z,102563.69
2022-10-05T22:16:38.627Z,102553.72
2022-10-05T22:19:11.631Z,102566.66
2022-10-05T22:21:41.815Z,102567.00
2022-10-05T22:24:11.686Z,102539.78
2022-10-05T22:26:40.464Z,102549.84
2022-10-05T22:29:07.687Z,102552.28
2022-10-05T22:31:35.265Z,102563.81
2022-10-05T22:34:02.393Z,102556.88
2022-10-05T22:36:29.707Z,102555.84
2022-10-05T22:38:56.852Z,102535.59
2022-10-05T22:41:24.038Z,102554.22
2022-10-05T22:43:51.965Z,102502.41
2022-10-05T22:46:20.034Z,102525.25
2022-10-05T22:48:48.201Z,102555.13
2022-10-05T22:51:15.226Z,102523.50
2022-10-05T22:53:42.544Z,102539.19
2022-10-05T22:56:12.999Z,102538.00
2022-10-05T22:58:41.641Z,102525.88
2022-10-05T23:01:14.882Z,102539.09
2022-10-05T23:03:42.517Z,102538.72
2022-10-05T23:06:18.380Z,102495.75
2022-10-05T23:08:46.212Z,102539.34
2022-10-05T23:11:16.316Z,102544.00
2022-10-05T23:13:43.872Z,102498.50
2022-10-05T23:16:12.314Z,102541.31
2022-10-05T23:18:40.577Z,102539.78
2022-10-05T23:21:09.814Z,102526.53
2022-10-05T23:23:38.569Z,102524.28
2022-10-05T23:26:08.007Z,102474.22
2022-10-05T23:28:35.202Z,102520.47
2022-10-05T23:31:05.042Z,102529.22
2022-10-05T23:33:32.319Z,102525.56
2022-10-05T23:36:06.215Z,102522.00
2022-10-05T23:38:35.028Z,102525.16
2022-10-05T23:41:02.806Z,102539.03
2022-10-05T23:43:30.191Z,102506.97
2022-10-05T23:45:58.181Z,102522.56
2022-10-05T23:48:27.004Z,102534.03
2022-10-05T23:50:55.849Z,102513.91
2022-10-05T23:53:23.360Z,102522.13
2022-10-05T23:55:54.653Z,102531.63
2022-10-05T23:58:23.120Z,102508.19
